Time;durP1;ratioP1;P1;durP2;ratioP2;P2;SDS_P1;SDS_P2;PMS_P1;PMS_P2;Temp;Humidity;BMP_temperature;BMP_pressure;BME280_temperature;BME280_humidity;BME280_pressure;Samples;Min_cycle;Max_cycle;Signal;HPM_P1;HPM_P2
2023/04/11 00:02:17;;;;;;;8.73;2.13;;;7.90;99.90;;;;;;5083904;28;20044;-61
2023/04/11 00:04:42;;;;;;;9.15;1.77;;;7.80;99.90;;;;;;5066851;28;20453;-63
2023/04/11 00:07:08;;;;;;;8.15;1.80;;;7.70;99.90;;;;;;5067325;28;20052;-65
2023/04/11 00:09:34;;;;;;;9.18;1.83;;;7.60;99.90;;;;;;5083398;28;20158;-64
2023/04/11 00:12:03;;;;;;;12.90;1.90;;;7.60;99.90;;;;;;5066457;28;20518;-63
2023/04/11 00:14:33;;;;;;;8.02;1.90;;;7.50;99.90;;;;;;5073905;28;20359;-63
2023/04/11 00:17:02;;;;;;;11.15;2.20;;;7.40;99.90;;;;;;5085842;28;20534;-63
2023/04/11 00:19:28;;;;;;;10.35;2.05;;;7.40;99.90;;;;;;5049181;28;20041;-62
2023/04/11 00:21:59;;;;;;;7.70;1.80;;;7.40;99.90;;;;;;5066172;28;20410;-63
2023/04/11 00:24:25;;;;;;;9.02;1.80;;;7.30;99.90;;;;;;5049785;28;20103;-63
2023/04/11 00:26:52;;;;;;;8.27;2.17;;;7.30;99.90;;;;;;5066389;28;20086;-63
2023/04/11 00:29:17;;;;;;;8.32;2.70;;;7.30;99.90;;;;;;5049457;28;20259;-64
2023/04/11 00:31:43;;;;;;;12.93;2.25;;;7.20;99.90;;;;;;5066228;28;20042;-64
2023/04/11 00:34:09;;;;;;;9.80;2.00;;;7.20;99.90;;;;;;5065843;28;20055;-64
2023/04/11 00:36:35;;;;;;;12.10;2.85;;;7.20;99.90;;;;;;5065773;28;20033;-64
2023/04/11 00:39:00;;;;;;;12.27;2.30;;;7.10;99.90;;;;;;5065831;28;20504;-62
2023/04/11 00:41:26;;;;;;;11.88;2.13;;;7.10;99.90;;;;;;5066061;28;20072;-61
2023/04/11 00:43:53;;;;;;;14.60;2.47;;;7.10;99.90;;;;;;5065731;28;20039;-63
2023/04/11 00:46:19;;;;;;;14.40;2.20;;;7.00;99.90;;;;;;5049434;28;20068;-62
2023/04/11 00:48:46;;;;;;;11.27;2.20;;;7.00;99.90;;;;;;5066914;28;20083;-62
2023/04/11 00:51:15;;;;;;;14.40;3.10;;;7.00;99.90;;;;;;5065586;28;20519;-63
2023/04/11 00:53:41;;;;;;;17.13;2.67;;;6.90;99.90;;;;;;5082357;28;20087;-63
2023/04/11 00:56:08;;;;;;;14.35;2.10;;;6.90;99.90;;;;;;5066950;28;20037;-63
2023/04/11 00:58:36;;;;;;;9.73;2.05;;;6.90;99.90;;;;;;5048297;28;20044;-63
2023/04/11 01:01:07;;;;;;;11.68;2.28;;;6.80;99.90;;;;;;5066809;28;20095;-63
2023/04/11 01:03:37;;;;;;;13.20;2.47;;;6.80;99.90;;;;;;5065636;28;20051;-62
2023/04/11 01:06:06;;;;;;;17.80;3.05;;;6.80;99.90;;;;;;5065376;28;20045;-64
2023/04/11 01:08:33;;;;;;;14.43;2.72;;;6.90;99.90;;;;;;5048792;28;20437;-65
2023/04/11 01:11:04;;;;;;;15.35;2.53;;;6.90;99.90;;;;;;5082474;28;20048;-63
2023/04/11 01:13:32;;;;;;;14.95;2.25;;;6.90;99.90;;;;;;5069201;28;20043;-63
2023/04/11 01:15:59;;;;;;;11.00;2.28;;;6.90;99.90;;;;;;5086550;28;20036;-64
2023/04/11 01:18:26;;;;;;;11.95;2.55;;;6.90;99.90;;;;;;5053398;28;20048;-64
2023/04/11 01:20:53;;;;;;;13.60;2.00;;;6.90;99.90;;;;;;5065270;28;20101;-64
2023/04/11 01:23:25;;;;;;;17.98;2.88;;;6.90;99.90;;;;;;5064754;28;20052;-63
2023/04/11 01:25:51;;;;;;;18.63;3.03;;;6.90;99.90;;;;;;5064983;28;20041;-64
2023/04/11 01:28:18;;;;;;;12.15;2.40;;;6.80;99.90;;;;;;5064886;28;20041;-63
2023/04/11 01:30:44;;;;;;;14.15;2.20;;;6.80;99.90;;;;;;5065085;28;20132;-63
2023/04/11 01:33:12;;;;;;;13.38;2.38;;;6.80;99.90;;;;;;5081604;28;20074;-65
2023/04/11 01:35:38;;;;;;;11.55;2.15;;;6.80;99.90;;;;;;5064796;28;20044;-63
2023/04/11 01:38:05;;;;;;;13.48;2.30;;;6.70;99.90;;;;;;5065775;28;20503;-62
2023/04/11 01:40:34;;;;;;;10.38;2.20;;;6.70;99.90;;;;;;5078801;28;20051;-63
2023/04/11 01:43:02;;;;;;;17.80;2.92;;;6.70;99.90;;;;;;5079496;28;20040;-64
2023/04/11 01:45:29;;;;;;;14.15;2.55;;;6.70;99.90;;;;;;5064636;28;20051;-64
2023/04/11 01:47:56;;;;;;;16.05;2.20;;;6.60;99.90;;;;;;5065540;28;20032;-63
2023/04/11 01:50:22;;;;;;;13.98;2.42;;;6.60;99.90;;;;;;5086006;28;20087;-64
2023/04/11 01:52:48;;;;;;;9.88;2.25;;;6.60;99.90;;;;;;5085764;28;20044;-64
2023/04/11 01:55:14;;;;;;;11.85;2.15;;;6.60;99.90;;;;;;5056126;28;20670;-64
2023/04/11 01:57:40;;;;;;;15.48;2.70;;;6.60;99.90;;;;;;5065778;28;20519;-62
2023/04/11 02:00:10;;;;;;;17.42;3.17;;;6.60;99.90;;;;;;5047176;28;20068;-63
2023/04/11 02:02:37;;;;;;;19.38;2.65;;;6.70;99.90;;;;;;5047512;28;20517;-63
2023/04/11 02:05:03;;;;;;;14.77;2.33;;;6.70;99.90;;;;;;5047529;28;20413;-62
2023/04/11 02:07:29;;;;;;;12.75;2.50;;;6.80;99.90;;;;;;5065282;28;20048;-62
2023/04/11 02:09:56;;;;;;;11.20;2.60;;;6.80;99.90;;;;;;5072520;28;20047;-62
2023/04/11 02:12:22;;;;;;;11.43;2.47;;;6.80;99.90;;;;;;5084235;28;20124;-61
2023/04/11 02:14:48;;;;;;;20.17;2.85;;;6.80;99.90;;;;;;5050944;28;20127;-63
2023/04/11 02:17:16;;;;;;;11.10;2.83;;;6.80;99.90;;;;;;5082009;28;20040;-61
2023/04/11 02:19:44;;;;;;;12.23;2.67;;;6.80;99.90;;;;;;5079438;28;20040;-62
2023/04/11 02:22:10;;;;;;;16.17;2.53;;;6.90;99.90;;;;;;5083818;28;20115;-63
2023/04/11 02:24:36;;;;;;;13.38;2.30;;;6.90;99.90;;;;;;5077879;28;20089;-62
2023/04/11 02:27:02;;;;;;;11.23;1.98;;;6.80;99.90;;;;;;5065557;28;20041;-63
2023/04/11 02:29:28;;;;;;;10.38;1.85;;;6.90;99.90;;;;;;5046853;28;20036;-62
2023/04/11 02:31:54;;;;;;;18.35;2.20;;;6.90;99.90;;;;;;5063511;28;20044;-63
2023/04/11 02:34:20;;;;;;;9.82;2.25;;;6.90;99.90;;;;;;5069617;28;20044;-63
2023/04/11 02:36:46;;;;;;;11.95;1.92;;;6.90;99.90;;;;;;5065071;28;20036;-63
2023/04/11 02:39:12;;;;;;;8.52;1.83;;;7.00;99.90;;;;;;5064962;28;20028;-62
2023/04/11 02:41:39;;;;;;;13.52;2.10;;;7.00;99.90;;;;;;5084051;28;20506;-63
2023/04/11 02:44:05;;;;;;;12.30;2.00;;;7.00;99.90;;;;;;5083621;28;20047;-62
2023/04/11 02:46:30;;;;;;;10.32;2.22;;;7.00;99.90;;;;;;5083716;28;20028;-63
2023/04/11 02:48:56;;;;;;;11.32;2.22;;;7.00;99.90;;;;;;5065397;28;20069;-63
2023/04/11 02:51:22;;;;;;;12.45;1.80;;;6.90;99.90;;;;;;5063559;28;20066;-62
2023/04/11 02:53:48;;;;;;;10.68;2.03;;;7.00;99.90;;;;;;5063553;28;20483;-60
2023/04/11 02:56:17;;;;;;;14.00;2.47;;;6.90;99.90;;;;;;5063582;28;20051;-62
2023/04/11 02:58:44;;;;;;;12.38;1.80;;;7.00;99.90;;;;;;5063585;28;20059;-62
2023/04/11 03:01:10;;;;;;;10.95;1.60;;;7.00;99.90;;;;;;5064490;28;20144;-64
2023/04/11 03:03:40;;;;;;;10.73;2.10;;;7.00;99.90;;;;;;5070652;28;20081;-62
2023/04/11 03:06:06;;;;;;;10.07;1.30;;;6.90;99.90;;;;;;5063044;28;20048;-62
2023/04/11 03:08:34;;;;;;;8.07;1.60;;;6.90;99.90;;;;;;5065105;28;20036;-63
2023/04/11 03:11:01;;;;;;;5.72;1.15;;;6.90;99.90;;;;;;5082010;28;20044;-62
2023/04/11 03:13:26;;;;;;;8.05;2.42;;;6.80;99.90;;;;;;5083849;28;20044;-62
2023/04/11 03:15:52;;;;;;;6.90;1.63;;;6.80;99.90;;;;;;5066306;28;20111;-62
2023/04/11 03:18:19;;;;;;;4.20;1.40;;;6.80;99.90;;;;;;5072833;28;20223;-63
2023/04/11 03:20:45;;;;;;;8.93;2.15;;;6.80;99.90;;;;;;5063487;28;20542;-62
2023/04/11 03:23:11;;;;;;;7.97;1.95;;;6.80;99.90;;;;;;5065052;28;20044;-63
2023/04/11 03:25:37;;;;;;;15.82;2.47;;;6.90;99.90;;;;;;5068461;28;20566;-61
2023/04/11 03:28:03;;;;;;;9.40;1.50;;;6.90;99.90;;;;;;5067225;28;20531;-62
2023/04/11 03:30:29;;;;;;;5.40;1.45;;;6.80;99.90;;;;;;5068362;28;20074;-64
2023/04/11 03:32:59;;;;;;;7.90;1.58;;;6.80;99.90;;;;;;5066738;28;20072;-64
2023/04/11 03:35:24;;;;;;;12.65;1.88;;;6.80;99.90;;;;;;5087040;28;20576;-62
2023/04/11 03:37:50;;;;;;;9.55;1.77;;;6.70;99.90;;;;;;5087287;28;20077;-63
2023/04/11 03:40:17;;;;;;;7.50;1.90;;;6.70;99.90;;;;;;5065882;28;20527;-64
2023/04/11 03:42:46;;;;;;;10.65;1.65;;;6.70;99.90;;;;;;5066697;28;20052;-64
2023/04/11 03:45:11;;;;;;;11.40;1.98;;;6.70;99.90;;;;;;5067148;28;20578;-62
2023/04/11 03:47:39;;;;;;;9.15;1.88;;;6.70;99.90;;;;;;5075369;28;20041;-62
2023/04/11 03:50:06;;;;;;;7.65;1.77;;;6.70;99.90;;;;;;5083873;28;20040;-63
2023/04/11 03:52:32;;;;;;;9.48;1.95;;;6.80;99.90;;;;;;5086788;28;20043;-63
2023/04/11 03:54:58;;;;;;;11.68;1.80;;;6.80;99.90;;;;;;5078275;28;20032;-62
2023/04/11 03:57:26;;;;;;;13.57;2.08;;;6.80;99.90;;;;;;5066578;28;20033;-62
2023/04/11 03:59:54;;;;;;;9.00;2.20;;;6.90;99.90;;;;;;5066347;28;20301;-62
2023/04/11 04:02:20;;;;;;;12.27;2.45;;;6.90;99.90;;;;;;5066529;28;20161;-62
2023/04/11 04:04:47;;;;;;;14.73;2.50;;;6.80;99.90;;;;;;5066641;28;20112;-63
2023/04/11 04:07:13;;;;;;;16.60;2.72;;;6.90;99.90;;;;;;5066198;28;20433;-63
2023/04/11 04:09:42;;;;;;;14.35;2.55;;;6.90;99.90;;;;;;5054328;28;20039;-63
2023/04/11 04:12:08;;;;;;;15.43;2.67;;;6.90;99.90;;;;;;5069652;28;20040;-63
2023/04/11 04:14:34;;;;;;;13.57;3.15;;;6.90;99.90;;;;;;5073215;28;20127;-63
2023/04/11 04:16:59;;;;;;;12.77;2.40;;;6.90;99.90;;;;;;5078356;28;20433;-64
2023/04/11 04:19:25;;;;;;;13.80;3.25;;;7.00;99.90;;;;;;5068153;28;20113;-61
2023/04/11 04:21:51;;;;;;;15.65;3.80;;;7.00;99.90;;;;;;5066007;28;20089;-63
2023/04/11 04:24:17;;;;;;;18.45;3.63;;;7.00;99.90;;;;;;5066710;28;20072;-63
2023/04/11 04:26:44;;;;;;;10.55;2.83;;;7.00;99.90;;;;;;5066116;28;20048;-63
2023/04/11 04:29:11;;;;;;;10.02;2.95;;;7.00;99.90;;;;;;5066333;28;20055;-63
2023/04/11 04:31:37;;;;;;;14.40;3.40;;;7.00;99.90;;;;;;5066434;28;20544;-63
2023/04/11 04:34:10;;;;;;;14.63;3.42;;;7.10;99.90;;;;;;5065790;28;20044;-61
2023/04/11 04:36:46;;;;;;;14.07;3.58;;;7.10;99.90;;;;;;5049284;28;20040;-63
2023/04/11 04:39:18;;;;;;;12.30;3.42;;;7.10;99.90;;;;;;5065931;28;20056;-63
2023/04/11 04:41:47;;;;;;;13.48;3.97;;;7.10;99.90;;;;;;5065809;28;20050;-63
2023/04/11 04:44:14;;;;;;;14.57;3.03;;;7.10;99.90;;;;;;5081254;28;20044;-62
2023/04/11 04:46:41;;;;;;;18.08;3.83;;;7.10;99.90;;;;;;5086021;28;20127;-62
2023/04/11 04:49:07;;;;;;;18.30;4.88;;;7.10;99.90;;;;;;5048946;28;20106;-62
2023/04/11 04:51:34;;;;;;;16.90;3.10;;;7.10;99.90;;;;;;5067022;28;20072;-62
2023/04/11 04:54:03;;;;;;;16.15;3.70;;;7.10;99.90;;;;;;5048874;28;20101;-63
2023/04/11 04:56:30;;;;;;;17.70;3.90;;;7.10;99.90;;;;;;5068836;28;20040;-63
2023/04/11 04:58:56;;;;;;;13.57;3.20;;;7.10;99.90;;;;;;5087414;28;20123;-64
2023/04/11 05:01:25;;;;;;;17.92;3.58;;;7.20;99.90;;;;;;5069139;28;20059;-62
2023/04/11 05:03:57;;;;;;;13.50;3.83;;;7.20;99.90;;;;;;5071711;28;20052;-62
2023/04/11 05:06:32;;;;;;;17.17;4.03;;;7.20;99.90;;;;;;5032765;28;20125;-62
2023/04/11 05:08:59;;;;;;;18.45;4.38;;;7.20;99.90;;;;;;5048732;28;20048;-64
2023/04/11 05:11:26;;;;;;;14.90;3.45;;;7.30;99.90;;;;;;5068932;28;20138;-64
2023/04/11 05:13:53;;;;;;;17.45;3.78;;;7.30;99.90;;;;;;5076470;28;20432;-64
2023/04/11 05:16:19;;;;;;;17.58;3.70;;;7.30;99.90;;;;;;5071542;28;20100;-63
2023/04/11 05:18:45;;;;;;;16.50;4.55;;;7.30;99.90;;;;;;5063076;28;20119;-60
2023/04/11 05:21:12;;;;;;;18.60;3.80;;;7.30;99.90;;;;;;5048551;28;20044;-62
2023/04/11 05:23:39;;;;;;;24.50;4.63;;;7.30;99.90;;;;;;5060161;28;20049;-62
2023/04/11 05:26:08;;;;;;;12.82;2.67;;;7.30;99.90;;;;;;5065039;28;20093;-63
2023/04/11 05:28:34;;;;;;;13.57;3.95;;;7.30;99.90;;;;;;5048507;28;20516;-62
2023/04/11 05:31:01;;;;;;;14.95;3.38;;;7.30;99.90;;;;;;5081966;28;20123;-63
2023/04/11 05:33:27;;;;;;;14.55;3.30;;;7.30;99.90;;;;;;5054416;28;20045;-62
2023/04/11 05:35:54;;;;;;;13.50;3.38;;;7.30;99.90;;;;;;5065154;28;20041;-64
2023/04/11 05:38:20;;;;;;;15.07;3.58;;;7.30;99.90;;;;;;5064801;28;20119;-64
2023/04/11 05:40:46;;;;;;;12.30;3.63;;;7.30;99.90;;;;;;5078552;28;20105;-64
2023/04/11 05:43:13;;;;;;;16.50;3.58;;;7.30;99.90;;;;;;5068335;28;20039;-66
2023/04/11 05:45:46;;;;;;;15.15;3.92;;;7.40;99.90;;;;;;5062603;28;20048;-63
2023/04/11 05:48:18;;;;;;;13.55;3.58;;;7.40;99.90;;;;;;5052611;28;20072;-65
2023/04/11 05:50:44;;;;;;;19.20;3.58;;;7.40;99.90;;;;;;5047843;28;20094;-63
2023/04/11 05:53:10;;;;;;;12.35;3.40;;;7.40;99.90;;;;;;5047718;28;20139;-63
2023/04/11 05:55:36;;;;;;;10.45;3.17;;;7.30;99.90;;;;;;5081611;28;20134;-64
2023/04/11 05:58:03;;;;;;;13.68;3.50;;;7.40;99.90;;;;;;5066439;28;20038;-63
2023/04/11 06:00:31;;;;;;;20.75;4.20;;;7.40;99.90;;;;;;5084460;28;20437;-62
2023/04/11 06:02:58;;;;;;;18.73;3.53;;;7.40;99.90;;;;;;5063440;28;20036;-62
2023/04/11 06:05:25;;;;;;;17.60;3.20;;;7.40;99.90;;;;;;5060485;28;20105;-68
2023/04/11 06:07:52;;;;;;;14.02;3.60;;;7.40;99.90;;;;;;5066526;28;20044;-63
2023/04/11 06:10:17;;;;;;;15.80;3.80;;;7.50;99.90;;;;;;5081878;28;20046;-63
2023/04/11 06:12:43;;;;;;;21.83;4.28;;;7.50;99.90;;;;;;5059355;28;20483;-62
2023/04/11 06:15:10;;;;;;;14.15;3.28;;;7.50;99.90;;;;;;5083444;28;20028;-64
2023/04/11 06:17:37;;;;;;;24.00;4.07;;;7.60;99.90;;;;;;5080443;28;20048;-62
2023/04/11 06:20:04;;;;;;;13.55;3.35;;;7.60;99.90;;;;;;5082297;28;20040;-63
2023/04/11 06:22:30;;;;;;;15.68;3.05;;;7.60;99.90;;;;;;5069469;28;20643;-62
2023/04/11 06:24:56;;;;;;;11.27;2.97;;;7.60;99.90;;;;;;5077858;28;20043;-63
2023/04/11 06:27:22;;;;;;;14.52;3.17;;;7.70;99.90;;;;;;5063866;28;20044;-63
2023/04/11 06:29:48;;;;;;;11.23;3.38;;;7.70;99.90;;;;;;5063906;28;20080;-64
2023/04/11 06:32:14;;;;;;;16.95;3.63;;;7.80;99.90;;;;;;5063332;28;20402;-64
2023/04/11 06:34:40;;;;;;;21.90;3.58;;;7.80;99.90;;;;;;5063661;28;20510;-62
2023/04/11 06:37:06;;;;;;;13.88;2.95;;;7.80;99.90;;;;;;5063863;28;20492;-64
2023/04/11 06:39:33;;;;;;;12.30;3.10;;;7.90;99.90;;;;;;5074210;28;20094;-64
2023/04/11 06:41:59;;;;;;;12.65;3.15;;;8.00;99.90;;;;;;5064269;28;20051;-63
2023/04/11 06:44:25;;;;;;;18.63;3.30;;;8.10;99.90;;;;;;5080836;28;20072;-65
2023/04/11 06:46:51;;;;;;;15.43;2.97;;;8.10;99.90;;;;;;5067340;28;20510;-63
2023/04/11 06:49:17;;;;;;;16.60;3.38;;;8.10;99.90;;;;;;5065981;28;20127;-68
2023/04/11 06:51:49;;;;;;;17.80;3.78;;;8.10;99.90;;;;;;5063767;28;20495;-65
2023/04/11 06:54:15;;;;;;;14.55;3.67;;;8.10;99.90;;;;;;5047429;28;20041;-64
2023/04/11 06:56:42;;;;;;;16.20;3.22;;;8.10;99.90;;;;;;5063677;28;20037;-63
2023/04/11 06:59:08;;;;;;;15.70;3.28;;;8.20;99.90;;;;;;5063838;28;20439;-64
2023/04/11 07:01:38;;;;;;;14.95;3.10;;;8.20;99.90;;;;;;5064012;28;20400;-63
2023/04/11 07:04:05;;;;;;;18.88;3.53;;;8.20;99.90;;;;;;5064854;28;20032;-66
2023/04/11 07:06:31;;;;;;;23.95;4.20;;;8.20;99.90;;;;;;5047313;28;20441;-62
2023/04/11 07:08:59;;;;;;;16.08;3.20;;;8.30;99.90;;;;;;5079538;28;20125;-61
2023/04/11 07:11:26;;;;;;;21.00;3.50;;;8.40;99.90;;;;;;5064007;28;20084;-60
2023/04/11 07:13:54;;;;;;;11.30;2.88;;;8.60;99.90;;;;;;5065328;28;20037;-64
2023/04/11 07:16:20;;;;;;;12.07;2.47;;;8.40;99.90;;;;;;5069897;28;20048;-62
2023/04/11 07:18:45;;;;;;;9.77;2.67;;;8.10;99.90;;;;;;5087202;28;20043;-63
2023/04/11 07:21:12;;;;;;;11.02;2.72;;;7.90;99.90;;;;;;5063456;28;20045;-61
2023/04/11 07:23:41;;;;;;;13.93;3.08;;;7.70;99.90;;;;;;5047107;28;20507;-63
2023/04/11 07:26:08;;;;;;;19.55;2.88;;;7.60;99.90;;;;;;5063518;28;20127;-64
2023/04/11 07:28:36;;;;;;;15.02;3.13;;;7.60;99.90;;;;;;5078848;28;20052;-64
2023/04/11 07:31:09;;;;;;;20.65;3.55;;;7.70;99.90;;;;;;5085072;28;20042;-63
2023/04/11 07:33:38;;;;;;;19.50;3.20;;;7.80;99.90;;;;;;5071751;28;20035;-64
2023/04/11 07:36:05;;;;;;;17.13;3.63;;;7.90;99.90;;;;;;5066560;28;20046;-63
2023/04/11 07:38:33;;;;;;;13.70;3.13;;;7.90;99.90;;;;;;5066608;28;20155;-64
2023/04/11 07:41:02;;;;;;;18.58;2.90;;;7.90;99.90;;;;;;5069557;28;20473;-62
2023/04/11 07:43:28;;;;;;;12.75;3.08;;;7.90;99.90;;;;;;5072705;28;20032;-64
2023/04/11 07:45:55;;;;;;;16.50;3.10;;;7.90;99.90;;;;;;5082005;28;20039;-63
2023/04/11 07:48:22;;;;;;;16.15;3.08;;;7.90;99.90;;;;;;5046079;28;20478;-61
2023/04/11 07:50:48;;;;;;;19.70;3.17;;;8.00;99.90;;;;;;5080031;28;20053;-66
2023/04/11 07:53:14;;;;;;;14.98;3.22;;;8.00;99.90;;;;;;5063222;28;20114;-65
2023/04/11 07:55:40;;;;;;;13.07;2.60;;;8.10;99.90;;;;;;5062765;28;20048;-65
2023/04/11 07:58:06;;;;;;;18.33;2.80;;;8.30;99.90;;;;;;5064577;28;20075;-65
2023/04/11 08:00:32;;;;;;;16.45;3.08;;;8.50;99.90;;;;;;5046042;28;20060;-62
2023/04/11 08:03:03;;;;;;;18.98;3.22;;;8.60;99.90;;;;;;5046088;28;20050;-64
2023/04/11 08:05:33;;;;;;;14.93;3.15;;;8.70;99.90;;;;;;5064647;28;20046;-64
2023/04/11 08:07:59;;;;;;;18.67;2.83;;;9.00;99.90;;;;;;5046468;28;20040;-65
2023/04/11 08:10:25;;;;;;;20.70;3.08;;;9.10;99.90;;;;;;5067061;28;20909;-62
2023/04/11 08:12:53;;;;;;;21.50;3.60;;;9.10;99.90;;;;;;5067099;28;20276;-65
2023/04/11 08:15:19;;;;;;;13.18;2.72;;;9.00;99.90;;;;;;5050182;28;20450;-63
2023/04/11 08:17:45;;;;;;;13.45;2.65;;;8.90;99.90;;;;;;5075621;28;20040;-63
2023/04/11 08:20:12;;;;;;;16.33;3.38;;;8.90;99.90;;;;;;5049693;28;20118;-65
2023/04/11 08:22:40;;;;;;;12.52;2.50;;;8.90;99.90;;;;;;5066424;28;20123;-64
2023/04/11 08:25:11;;;;;;;17.45;2.83;;;8.90;99.90;;;;;;5067734;28;20070;-64
2023/04/11 08:27:37;;;;;;;14.48;3.10;;;9.00;99.90;;;;;;5066443;28;20036;-69
2023/04/11 08:30:05;;;;;;;13.05;2.13;;;9.30;99.90;;;;;;5049748;28;20049;-64
2023/04/11 08:32:31;;;;;;;17.67;2.80;;;9.50;99.90;;;;;;5065739;28;20044;-65
2023/04/11 08:34:57;;;;;;;15.80;2.70;;;9.80;99.90;;;;;;5080525;28;20085;-64
2023/04/11 08:37:22;;;;;;;16.58;2.83;;;10.40;99.90;;;;;;5080348;28;20140;-65
2023/04/11 08:39:48;;;;;;;17.30;2.47;;;11.00;99.90;;;;;;5049547;28;20541;-67
2023/04/11 08:42:28;;;;;;;12.55;2.60;;;11.30;99.90;;;;;;5066024;28;20055;-63
2023/04/11 08:44:55;;;;;;;11.95;2.10;;;11.40;99.90;;;;;;5049924;28;20052;-64
2023/04/11 08:47:22;;;;;;;12.25;2.45;;;11.10;99.90;;;;;;5072136;28;20044;-68
2023/04/11 08:49:48;;;;;;;8.15;2.60;;;11.10;99.90;;;;;;5079210;28;20267;-64
2023/04/11 08:52:15;;;;;;;12.52;2.38;;;11.20;99.90;;;;;;5069049;28;20047;-65
2023/04/11 08:54:40;;;;;;;13.20;2.10;;;11.20;99.90;;;;;;5072442;28;20044;-67
2023/04/11 08:57:06;;;;;;;11.60;2.17;;;10.90;99.90;;;;;;5065680;28;20117;-65
2023/04/11 08:59:32;;;;;;;11.23;2.22;;;10.80;99.90;;;;;;5082698;28;20057;-66
2023/04/11 09:02:08;;;;;;;11.68;2.00;;;10.50;99.90;;;;;;5065475;28;20131;-67
2023/04/11 09:04:41;;;;;;;14.38;2.30;;;10.40;99.80;;;;;;5065970;28;20518;-64
2023/04/11 09:07:07;;;;;;;10.13;2.25;;;10.20;99.90;;;;;;5065133;28;20051;-67
2023/04/11 09:09:35;;;;;;;9.02;2.20;;;10.30;99.90;;;;;;5065657;28;20127;-64
2023/04/11 09:12:02;;;;;;;15.15;2.78;;;10.70;99.90;;;;;;5065399;28;20094;-64
2023/04/11 09:14:28;;;;;;;6.70;1.40;;;11.40;99.60;;;;;;5065743;28;20393;-65
2023/04/11 09:17:03;;;;;;;7.88;1.67;;;11.80;98.60;;;;;;5074365;28;20497;-64
2023/04/11 09:19:33;;;;;;;8.73;2.20;;;11.50;97.60;;;;;;5071756;28;20049;-67
2023/04/11 09:22:03;;;;;;;11.40;2.30;;;11.10;99.10;;;;;;5065017;28;20055;-66
2023/04/11 09:24:29;;;;;;;12.65;2.40;;;10.60;99.90;;;;;;5032462;28;20047;-67
2023/04/11 09:27:11;;;;;;;11.05;2.00;;;10.10;99.90;;;;;;5048143;28;20051;-64
2023/04/11 09:29:38;;;;;;;9.70;2.53;;;9.60;99.90;;;;;;5058135;28;20079;-64
2023/04/11 09:32:04;;;;;;;11.57;2.10;;;9.40;99.90;;;;;;5065329;28;20071;-66
2023/04/11 09:34:31;;;;;;;8.32;1.60;;;9.40;99.90;;;;;;5064888;28;20141;-66
2023/04/11 09:36:58;;;;;;;10.13;2.22;;;9.20;99.90;;;;;;5064810;28;20055;-62
2023/04/11 09:39:27;;;;;;;11.80;2.22;;;9.00;99.90;;;;;;5065105;28;20499;-62
2023/04/11 09:41:53;;;;;;;8.68;1.73;;;8.60;99.90;;;;;;5065066;28;20044;-64
2023/04/11 09:44:18;;;;;;;12.27;1.75;;;8.50;99.90;;;;;;5067796;28;20570;-63
2023/04/11 09:46:58;;;;;;;7.88;1.70;;;8.50;99.90;;;;;;5047902;28;20351;-68
2023/04/11 09:49:24;;;;;;;9.48;2.08;;;8.60;99.90;;;;;;5071210;28;20047;-65
2023/04/11 09:51:54;;;;;;;12.55;2.63;;;8.80;99.90;;;;;;5064409;28;20036;-65
2023/04/11 09:54:23;;;;;;;11.77;2.38;;;9.20;99.90;;;;;;5065018;28;20055;-63
2023/04/11 09:56:49;;;;;;;12.25;2.42;;;9.60;99.90;;;;;;5047683;28;20032;-66
2023/04/11 09:59:15;;;;;;;15.85;2.53;;;10.20;99.90;;;;;;5064788;28;20047;-65
2023/04/11 10:01:42;;;;;;;10.02;2.13;;;10.80;99.90;;;;;;5064334;28;20052;-65
2023/04/11 10:04:12;;;;;;;13.20;2.97;;;11.40;99.90;;;;;;5064978;28;20042;-65
2023/04/11 10:07:02;;;;;;;11.25;3.00;;;11.40;99.90;;;;;;5047664;28;20119;-69
2023/04/11 10:09:30;;;;;;;9.63;2.13;;;11.50;99.90;;;;;;5066213;28;20041;-64
2023/04/11 10:11:56;;;;;;;11.07;2.08;;;11.50;99.90;;;;;;5047823;28;20040;-67
2023/04/11 10:14:40;;;;;;;16.50;2.53;;;11.40;99.90;;;;;;5064716;28;20377;-63
2023/04/11 10:17:20;;;;;;;12.80;2.15;;;11.20;99.90;;;;;;5058989;28;20040;-66
2023/04/11 10:19:47;;;;;;;14.27;2.45;;;11.10;99.90;;;;;;5047941;28;20570;-66
2023/04/11 10:22:42;;;;;;;17.00;2.90;;;11.20;99.90;;;;;;5047576;28;20127;-67
2023/04/11 10:25:18;;;;;;;12.20;2.55;;;11.50;99.90;;;;;;5064615;28;20497;-65
2023/04/11 10:27:48;;;;;;;16.67;2.90;;;11.60;99.90;;;;;;5047536;28;20091;-64
2023/04/11 10:30:15;;;;;;;13.13;2.40;;;11.80;99.90;;;;;;5064551;28;20042;-64
2023/04/11 10:33:00;;;;;;;8.63;1.60;;;11.90;99.90;;;;;;5058508;28;20098;-63
2023/04/11 10:35:28;;;;;;;9.77;2.05;;;11.60;99.90;;;;;;5052728;28;20083;-67
2023/04/11 10:37:55;;;;;;;11.32;1.85;;;11.60;99.90;;;;;;5075347;28;20087;-64
2023/04/11 10:40:21;;;;;;;10.80;1.92;;;11.80;99.90;;;;;;5064242;28;20047;-64
2023/04/11 10:42:48;;;;;;;6.57;1.70;;;11.70;99.90;;;;;;5084244;28;20119;-67
2023/04/11 10:45:17;;;;;;;6.60;1.50;;;11.00;99.90;;;;;;5057155;28;20067;-69
2023/04/11 10:47:59;;;;;;;6.10;1.30;;;10.20;99.90;;;;;;5058763;28;20062;-61
2023/04/11 10:50:25;;;;;;;8.95;1.30;;;9.30;99.90;;;;;;5076747;28;20518;-64
2023/04/11 10:53:02;;;;;;;3.50;0.88;;;8.60;99.90;;;;;;5083580;28;20035;-62
2023/04/11 10:55:29;;;;;;;6.72;1.25;;;7.90;99.90;;;;;;5083959;28;20131;-63
2023/04/11 10:58:06;;;;;;;9.45;1.65;;;7.40;99.90;;;;;;5076088;28;20036;-61
2023/04/11 11:00:47;;;;;;;7.15;1.30;;;7.10;99.90;;;;;;5064872;28;20056;-64
2023/04/11 11:03:35;;;;;;;10.27;1.50;;;6.90;99.90;;;;;;5064330;28;20052;-62
2023/04/11 11:06:06;;;;;;;10.50;2.25;;;6.80;99.90;;;;;;5064936;28;20032;-62
2023/04/11 11:08:33;;;;;;;12.73;2.10;;;6.70;99.90;;;;;;5030656;28;20090;-63
2023/04/11 11:11:05;;;;;;;9.77;1.73;;;6.80;99.90;;;;;;5058165;28;20040;-63
2023/04/11 11:13:59;;;;;;;11.50;2.15;;;6.90;99.90;;;;;;5065145;28;20051;-62
2023/04/11 11:16:25;;;;;;;10.50;2.00;;;7.00;99.90;;;;;;5070010;28;20112;-62
2023/04/11 11:18:57;;;;;;;10.40;1.80;;;6.90;99.90;;;;;;5073251;28;20653;-61
2023/04/11 11:21:26;;;;;;;8.43;1.30;;;6.80;99.90;;;;;;5063520;28;20407;-64
2023/04/11 11:24:00;;;;;;;9.15;1.23;;;6.70;99.90;;;;;;5063412;28;20048;-64
2023/04/11 11:26:43;;;;;;;9.45;1.58;;;6.60;99.90;;;;;;5063757;28;20052;-63
2023/04/11 11:29:10;;;;;;;9.82;1.80;;;6.50;99.90;;;;;;5046934;28;20550;-64
2023/04/11 11:31:44;;;;;;;9.45;1.75;;;6.40;99.90;;;;;;5063425;28;20048;-64
2023/04/11 11:34:11;;;;;;;10.55;2.20;;;6.40;99.90;;;;;;5069905;28;20097;-62
2023/04/11 11:36:45;;;;;;;10.20;1.70;;;6.30;99.90;;;;;;5046659;28;20123;-63
2023/04/11 11:39:14;;;;;;;8.68;1.60;;;6.40;99.90;;;;;;5061250;28;20071;-61
2023/04/11 11:41:40;;;;;;;8.63;1.60;;;6.50;99.90;;;;;;5067124;28;20199;-62
2023/04/11 11:44:06;;;;;;;7.95;2.28;;;6.60;99.90;;;;;;5085687;28;20540;-65
2023/04/11 11:46:34;;;;;;;9.00;1.55;;;6.90;99.90;;;;;;5050569;28;20051;-64
2023/04/11 11:49:04;;;;;;;10.48;2.10;;;7.30;99.90;;;;;;5073749;28;20347;-62
2023/04/11 11:51:45;;;;;;;9.73;2.00;;;7.60;99.90;;;;;;5068332;28;20318;-62
2023/04/11 11:54:11;;;;;;;8.60;1.67;;;7.70;99.90;;;;;;5068412;28;20562;-62
2023/04/11 11:56:38;;;;;;;8.10;1.60;;;7.60;99.90;;;;;;5068138;28;20124;-63
2023/04/11 11:59:04;;;;;;;9.82;1.65;;;7.50;99.90;;;;;;5066561;28;20048;-63
2023/04/11 12:01:35;;;;;;;8.95;1.77;;;7.40;99.90;;;;;;5068444;28;20071;-63
2023/04/11 12:04:03;;;;;;;8.40;1.98;;;7.20;99.90;;;;;;5050433;28;20503;-62
2023/04/11 12:06:32;;;;;;;12.27;1.98;;;7.20;99.90;;;;;;5066596;28;20039;-61
2023/04/11 12:09:07;;;;;;;10.52;2.20;;;7.10;99.90;;;;;;5050439;28;20044;-64
2023/04/11 12:11:40;;;;;;;11.57;1.92;;;7.10;99.90;;;;;;5083771;28;20084;-63
2023/04/11 12:14:07;;;;;;;19.25;2.85;;;7.20;99.90;;;;;;5068052;28;20050;-62
2023/04/11 12:16:39;;;;;;;11.35;3.13;;;7.40;99.90;;;;;;5075055;28;20557;-62
2023/04/11 12:19:04;;;;;;;17.70;3.03;;;7.80;99.90;;;;;;5067520;28;20062;-62
2023/04/11 12:21:30;;;;;;;18.70;3.75;;;8.10;99.90;;;;;;5049733;28;20097;-62
2023/04/11 12:24:00;;;;;;;17.17;2.67;;;8.40;99.90;;;;;;5066606;28;20055;-64
2023/04/11 12:26:25;;;;;;;16.35;3.05;;;8.90;99.90;;;;;;5075130;28;20058;-63
2023/04/11 12:28:51;;;;;;;21.02;2.78;;;9.40;99.90;;;;;;5088236;28;20339;-63
2023/04/11 12:31:18;;;;;;;10.40;2.83;;;9.50;99.90;;;;;;5069356;28;20036;-64
2023/04/11 12:33:44;;;;;;;15.25;3.00;;;9.50;99.90;;;;;;5056808;28;20038;-64
2023/04/11 12:36:11;;;;;;;18.98;3.42;;;9.60;99.90;;;;;;5087708;28;20044;-64
2023/04/11 12:38:37;;;;;;;12.57;2.85;;;9.70;99.90;;;;;;5087903;28;20051;-64
2023/04/11 12:41:02;;;;;;;13.40;2.95;;;9.90;99.90;;;;;;5086471;28;20454;-65
2023/04/11 12:43:28;;;;;;;13.05;2.90;;;10.60;99.90;;;;;;5082268;28;20041;-66
2023/04/11 12:45:54;;;;;;;16.25;2.85;;;10.90;99.90;;;;;;5066129;28;20150;-65
2023/04/11 12:48:20;;;;;;;13.20;2.42;;;10.90;99.90;;;;;;5066844;28;20056;-62
2023/04/11 12:50:46;;;;;;;13.50;2.40;;;10.70;99.90;;;;;;5066099;28;20476;-64
2023/04/11 12:53:11;;;;;;;16.30;2.67;;;10.50;99.90;;;;;;5059959;28;20042;-63